Froland — V2QM8 — position and weather

sailwx.info

Track history (hours):
 
Tides and Currents Weather Stations Pressure Air Temp Water Temp Dewpoint Dewpoint Depression Visibility Wind Speed Wind Dir Waves Ship Positions

Froland

Last reported at 2018-Jul-17 15:03 UTC. Time now 2018-Jul-18 22:25 UTC.
Position N 56°34' E 017°60'.

Length 107 m; draft 8.5 m.

Type: Cargo ship. MMSI: 305714000.

Date/timePositionNaut miles runAvg speedWind from/ knotsBaromVisibWave heightAir tempDewpointWater temp
2018-Jul-17 15:03N 56°34' E 017°60'010.8
2018-Jul-17 15:00N 56°34' E 017°59'610.8
2018-Jul-17 14:30N 56°30' E 017°51'510.8
2018-Jul-17 14:00N 56°27' E 017°44'510.9
2018-Jul-17 13:30N 56°24' E 017°36'611.1
2018-Jul-17 13:00N 56°20' E 017°28'611.3
2018-Jul-17 12:30N 56°17' E 017°20'611.2
2018-Jul-17 12:00N 56°13' E 017°12'611.2
2018-Jul-17 11:30N 56°10' E 017°04'611.2
2018-Jul-17 11:00N 56°07' E 016°56'611.2
2018-Jul-17 10:30N 56°03' E 016°48'611.1
2018-Jul-17 10:00N 56°00' E 016°40'611.2
2018-Jul-17 09:30N 55°57' E 016°31'611.2
2018-Jul-17 09:00N 55°55' E 016°22'611.1
2018-Jul-17 08:30N 55°52' E 016°14'611.2
2018-Jul-17 08:00N 55°49' E 016°05'611.1
2018-Jul-17 07:30N 55°47' E 015°56'611.2
2018-Jul-17 07:00N 55°44' E 015°48'611.4
2018-Jul-17 06:30N 55°41' E 015°39'611.5
2018-Jul-17 06:00N 55°39' E 015°30'611.5
2018-Jul-17 05:30N 55°36' E 015°21'611.3
2018-Jul-17 05:00N 55°33' E 015°12'611.1
2018-Jul-17 04:30N 55°30' E 015°03'511.3
2018-Jul-17 04:00N 55°28' E 014°55'611.3
2018-Jul-17 03:30N 55°25' E 014°46'611.1
2018-Jul-17 03:00N 55°22' E 014°38'611.2
2018-Jul-17 02:30N 55°17' E 014°32'611.2
2018-Jul-17 02:00N 55°13' E 014°26'611.4
2018-Jul-17 01:30N 55°08' E 014°20'611.8
2018-Jul-17 01:00N 55°04' E 014°14'611.5
2018-Jul-17 00:29N 55°00' E 014°05'4911.3
2018-Jul-16 20:09N 54°44' E 012°45'211.1
2018-Jul-16 20:00N 54°43' E 012°42'610.9
2018-Jul-16 19:29N 54°41' E 012°34'511.0
2018-Jul-16 19:00N 54°38' E 012°26'610.8
2018-Jul-16 18:28N 54°33' E 012°20'1010.8
2018-Jul-16 17:31N 54°25' E 012°10'110.9
2018-Jul-16 17:27N 54°24' E 012°09'611.0
2018-Jul-16 16:56N 54°24' E 011°59'811.2
2018-Jul-16 16:14N 54°25' E 011°46'311.4
2018-Jul-16 16:00N 54°26' E 011°42'611.6
2018-Jul-16 15:30N 54°28' E 011°33'611.4
2018-Jul-16 15:00N 54°31' E 011°24'611.2
2018-Jul-16 14:30N 54°33' E 011°15'611.3
2018-Jul-16 14:00N 54°36' E 011°07'611.4
2018-Jul-16 13:30N 54°39' E 010°59'510.5
2018-Jul-16 13:00N 54°43' E 010°52'510.9
2018-Jul-16 12:30N 54°48' E 010°52'510.3
2018-Jul-16 12:00N 54°53' E 010°53'510.1
2018-Jul-16 11:30N 54°58' E 010°58'510.4
2018-Jul-16 11:00N 55°03' E 011°02'510.8
2018-Jul-16 10:31N 55°08' E 011°03'610.5
2018-Jul-16 09:55N 55°14' E 011°06'511.5
2018-Jul-16 09:29N 55°18' E 011°02'610.9
2018-Jul-16 08:59N 55°24' E 011°00'43 9.8
2018-Jul-16 04:35N 56°07' E 011°09'311.1
2018-Jul-16 04:19N 56°09' E 011°13'410.9
2018-Jul-16 03:57N 56°12' E 011°18'511.1
2018-Jul-16 03:29N 56°16' E 011°22'511.0
2018-Jul-16 03:00N 56°21' E 011°27'510.9
2018-Jul-16 02:30N 56°26' E 011°32'711.3
2018-Jul-16 01:53N 56°32' E 011°38'411.4
2018-Jul-16 01:30N 56°35' E 011°42'611.3
2018-Jul-16 01:00N 56°40' E 011°47'611.2
2018-Jul-16 00:30N 56°46' E 011°51'611.4
2018-Jul-16 00:00N 56°51' E 011°48'611.3
2018-Jul-15 23:30N 56°56' E 011°45'611.0
2018-Jul-15 23:00N 57°01' E 011°42'510.8
2018-Jul-15 22:30N 57°07' E 011°38'611.4
2018-Jul-15 22:00N 57°12' E 011°35'611.7
2018-Jul-15 21:30N 57°17' E 011°31'611.7
2018-Jul-15 21:00N 57°23' E 011°27'611.1
2018-Jul-15 20:30N 57°28' E 011°23'611.4
2018-Jul-15 20:00N 57°32' E 011°15'611.5
2018-Jul-15 19:30N 57°36' E 011°07'611.9
2018-Jul-15 19:00N 57°40' E 010°59'611.7
2018-Jul-15 18:30N 57°43' E 010°51'3012.1
2018-Jul-15 16:00N 57°46' E 009°54'7311.6
2018-Jul-15 09:45N 57°42' E 007°38'311.2
2018-Jul-15 09:30N 57°42' E 007°33'611.2
2018-Jul-15 09:00N 57°42' E 007°23'611.2
2018-Jul-15 08:30N 57°42' E 007°12'6610.7
2018-Jul-15 02:18N 58°15' E 005°23'811.2
2018-Jul-15 01:37N 58°20' E 005°13'211.9
2018-Jul-15 01:28N 58°22' E 005°13'611.9
2018-Jul-15 00:57N 58°28' E 005°15'511.6
2018-Jul-15 00:30N 58°33' E 005°16'611.6
2018-Jul-15 00:00N 58°39' E 005°18'612.0
2018-Jul-14 23:30N 58°45' E 005°21'612.2
2018-Jul-14 23:00N 58°50' E 005°27'510.7
2018-Jul-14 22:30N 58°55' E 005°32'611.4
2018-Jul-14 22:00N 59°00' E 005°33'3 6.3
2018-Jul-14 21:30N 59°02' E 005°39'510.7
2018-Jul-14 21:00N 59°02' E 005°49'4 8.9
2018-Jul-14 20:30N 59°05' E 005°54'0 0.2
2018-Jul-14 19:58N 59°05' E 005°54'0 0.0
2018-Jul-14 19:28N 59°05' E 005°54'0 0.0
2018-Jul-14 18:58N 59°05' E 005°54'0 0.0
2018-Jul-14 18:28N 59°05' E 005°54'0 0.0
2018-Jul-14 17:58N 59°05' E 005°54'0 0.0
2018-Jul-14 17:28N 59°05' E 005°54'0 0.0
2018-Jul-14 16:58N 59°05' E 005°54'0 0.0
2018-Jul-14 16:25N 59°05' E 005°54'0 0.0
2018-Jul-14 15:58N 59°05' E 005°54'0 0.0
2018-Jul-14 15:28N 59°05' E 005°54'0 0.0
2018-Jul-14 14:58N 59°05' E 005°54'0 0.0
2018-Jul-14 14:28N 59°05' E 005°54'0 0.0
2018-Jul-14 13:28N 59°05' E 005°54'0 0.0
2018-Jul-14 12:58N 59°05' E 005°54'0 0.0
2018-Jul-14 12:28N 59°05' E 005°54'0 0.0
2018-Jul-14 11:58N 59°05' E 005°54'0 0.0
2018-Jul-14 11:28N 59°05' E 005°54'0 0.0
2018-Jul-14 10:58N 59°05' E 005°54'0 0.0
2018-Jul-14 10:28N 59°05' E 005°54'0 0.0
2018-Jul-14 09:58N 59°05' E 005°54'0 0.0
2018-Jul-14 09:28N 59°05' E 005°54'0 0.0
2018-Jul-14 08:58N 59°05' E 005°54'0 0.0
2018-Jul-14 08:30N 59°05' E 005°54'1 1.1
2018-Jul-14 08:00N 59°05' E 005°53'510.2
2018-Jul-14 07:30N 59°02' E 005°45'611.5
2018-Jul-14 07:00N 59°03' E 005°34'611.4
2018-Jul-14 06:30N 58°57' E 005°33'611.9
2018-Jul-14 06:00N 58°51' E 005°31'510.4
2018-Jul-14 05:30N 58°49' E 005°21'611.4
2018-Jul-14 05:00N 58°45' E 005°15'611.8
2018-Jul-14 04:30N 58°40' E 005°09'611.8
2018-Jul-14 03:59N 58°34' E 005°04'611.9
2018-Jul-14 03:27N 58°29' E 004°58'33712.0
2018-Jul-12 23:16N 53°33' E 000°10'413.4
2018-Jul-12 23:01N 53°34' E 000°05'714.1
2018-Jul-12 22:30N 53°37' W 000°06'3 6.2
2018-Jul-12 22:00N 53°38' W 000°11'0 0.0
2018-Jul-12 21:30N 53°38' W 000°11'0 0.4
2018-Jul-12 21:00N 53°38' W 000°11'0 0.0
2018-Jul-12 20:24N 53°38' W 000°11'0 0.0
2018-Jul-12 20:00N 53°38' W 000°11'0 0.0
2018-Jul-12 19:21N 53°38' W 000°11'0 0.0
2018-Jul-12 18:39N 53°38' W 000°11'0 0.0
2018-Jul-12 16:12N 53°38' W 000°11'0 0.0
2018-Jul-12 15:51N 53°38' W 000°11'0 0.0
2018-Jul-12 15:27N 53°38' W 000°11'0 0.0
2018-Jul-12 13:54N 53°38' W 000°11'0 0.0
2018-Jul-12 13:30N 53°38' W 000°11'0 0.0
2018-Jul-12 13:00N 53°38' W 000°11'0 0.0
2018-Jul-12 12:30N 53°38' W 000°11'0 0.0
2018-Jul-12 12:00N 53°38' W 000°11'0 0.0
2018-Jul-12 09:30N 53°38' W 000°11'0 0.0
2018-Jul-12 08:12N 53°38' W 000°11'0 0.0
2018-Jul-12 08:00N 53°38' W 000°11'0 0.0
2018-Jul-12 07:24N 53°38' W 000°11'0 0.0
2018-Jul-12 07:00N 53°38' W 000°11'0 0.0
2018-Jul-12 06:30N 53°38' W 000°11'0 0.0
2018-Jul-12 05:42N 53°38' W 000°11'0 0.0
2018-Jul-12 05:30N 53°38' W 000°11'0 0.0
2018-Jul-12 05:00N 53°38' W 000°11'0 0.0
2018-Jul-12 04:30N 53°38' W 000°11'0 0.0
2018-Jul-12 04:00N 53°38' W 000°11'0 0.0
2018-Jul-12 03:18N 53°38' W 000°11'0 0.0
2018-Jul-12 03:00N 53°38' W 000°11'0 0.0
2018-Jul-12 02:30N 53°38' W 000°11'0 0.0
2018-Jul-12 02:00N 53°38' W 000°11'0 0.0
2018-Jul-12 01:24N 53°38' W 000°11'0 0.0
2018-Jul-12 01:00N 53°38' W 000°11'0 0.0
2018-Jul-12 00:27N 53°38' W 000°11'0 0.0
2018-Jul-11 23:09N 53°38' W 000°11'0 0.0
2018-Jul-11 23:00N 53°38' W 000°11'0 0.0
2018-Jul-11 22:30N 53°38' W 000°11'0 0.0
2018-Jul-11 21:54N 53°38' W 000°11'0 0.0
2018-Jul-11 21:24N 53°38' W 000°11'0 0.0
2018-Jul-11 20:54N 53°38' W 000°11'0 0.0
2018-Jul-11 15:42N 53°38' W 000°11'0 0.0
2018-Jul-11 15:18N 53°38' W 000°11'0 0.0
2018-Jul-11 13:54N 53°38' W 000°11'0 0.0
2018-Jul-11 13:24N 53°38' W 000°11'0 0.0
2018-Jul-11 11:51N 53°38' W 000°11'0 0.0
2018-Jul-11 11:21N 53°38' W 000°11'0 0.0
2018-Jul-11 10:45N 53°38' W 000°11'0 0.0
2018-Jul-11 10:30N 53°38' W 000°11'0 0.0
2018-Jul-11 09:45N 53°38' W 000°11'0 0.0
2018-Jul-11 09:30N 53°38' W 000°11'0 0.0
2018-Jul-11 08:57N 53°38' W 000°11'0 0.0
2018-Jul-11 08:30N 53°38' W 000°11'0 0.0
2018-Jul-11 07:57N 53°38' W 000°11'0 0.0
2018-Jul-11 07:27N 53°38' W 000°11'0 0.0
2018-Jul-11 06:54N 53°38' W 000°11'0 0.0
2018-Jul-11 06:00N 53°38' W 000°11'0 0.0
2018-Jul-11 05:30N 53°38' W 000°11'0 0.0
2018-Jul-11 04:57N 53°38' W 000°11'0 0.0
2018-Jul-11 04:27N 53°38' W 000°11'0 0.0
2018-Jul-11 03:51N 53°38' W 000°11'0 0.0
2018-Jul-11 03:15N 53°38' W 000°11'0 0.0
2018-Jul-11 02:57N 53°38' W 000°11'0 0.0
2018-Jul-11 02:21N 53°38' W 000°11'0 0.0
2018-Jul-11 01:45N 53°38' W 000°11'0 0.0
2018-Jul-11 01:27N 53°38' W 000°11'0 0.0
2018-Jul-11 00:57N 53°38' W 000°11'0 0.0
2018-Jul-11 00:27N 53°38' W 000°11'0 0.0
2018-Jul-10 23:45N 53°38' W 000°11'0 0.0
2018-Jul-10 23:27N 53°38' W 000°11'0 0.0
2018-Jul-10 22:57N 53°38' W 000°11'0 0.0
2018-Jul-10 22:30N 53°38' W 000°11'0 0.0
2018-Jul-10 21:51N 53°38' W 000°11'0 0.0
2018-Jul-10 21:27N 53°38' W 000°11'0 0.0
2018-Jul-10 20:51N 53°38' W 000°11'0 0.0
2018-Jul-10 20:27N 53°38' W 000°11'0 0.0
2018-Jul-10 19:57N 53°38' W 000°11'0 0.0
2018-Jul-10 19:24N 53°38' W 000°11'0 0.0
2018-Jul-10 18:39N 53°38' W 000°11'0 0.0
2018-Jul-10 18:15N 53°38' W 000°11'0 0.0
2018-Jul-10 17:57N 53°38' W 000°11'0 0.0
2018-Jul-10 17:27N 53°38' W 000°11'0 0.0
2018-Jul-10 16:57N 53°38' W 000°11'0 0.0
2018-Jul-10 13:09N 53°38' W 000°11'0 0.0
2018-Jul-10 12:57N 53°38' W 000°11'0 0.0
2018-Jul-10 12:18N 53°38' W 000°11'0 0.0
2018-Jul-10 11:54N 53°38' W 000°11'0 0.0
2018-Jul-10 11:27N 53°38' W 000°11'0 0.0
2018-Jul-10 10:45N 53°38' W 000°11'0 0.0
2018-Jul-10 10:30N 53°38' W 000°11'0 0.0
2018-Jul-10 09:57N 53°38' W 000°11'0 0.0
2018-Jul-10 09:24N 53°38' W 000°11'0 0.0
2018-Jul-10 09:00N 53°38' W 000°11'0 0.0
2018-Jul-10 08:30N 53°38' W 000°11'0 0.0
2018-Jul-10 08:00N 53°38' W 000°11'0 0.0
2018-Jul-10 07:15N 53°38' W 000°11'0 0.0
2018-Jul-10 06:51N 53°38' W 000°11'0 0.0
2018-Jul-10 06:21N 53°38' W 000°11'0 0.0
2018-Jul-10 05:51N 53°38' W 000°11'0 0.0
2018-Jul-10 05:27N 53°38' W 000°11'0 0.0
2018-Jul-10 05:00N 53°38' W 000°11'0 0.0
2018-Jul-10 04:30N 53°38' W 000°11'0 0.0
2018-Jul-10 04:00N 53°38' W 000°11'0 0.0
2018-Jul-10 03:24N 53°38' W 000°11'0 0.0
2018-Jul-10 03:00N 53°38' W 000°11'0 0.0
2018-Jul-10 02:30N 53°38' W 000°11'0 0.0
2018-Jul-10 02:00N 53°38' W 000°11'0 0.0
2018-Jul-10 01:30N 53°38' W 000°11'0 0.0
2018-Jul-10 00:57N 53°38' W 000°11'0 0.0
2018-Jul-10 00:30N 53°38' W 000°11'0 0.0
2018-Jul-10 00:00N 53°38' W 000°11'0 0.0
2018-Jul-09 23:30N 53°38' W 000°11'0 0.0
2018-Jul-09 23:00N 53°38' W 000°11'0 0.0
2018-Jul-09 22:30N 53°38' W 000°11'0 0.0
2018-Jul-09 22:00N 53°38' W 000°11'0 0.0
2018-Jul-09 21:30N 53°38' W 000°11'0 0.0
2018-Jul-09 21:00N 53°38' W 000°11'0 0.0
2018-Jul-09 20:30N 53°38' W 000°11'0 0.0
2018-Jul-09 20:00N 53°38' W 000°11'0 0.0
2018-Jul-09 19:24N 53°38' W 000°11'0 0.0
2018-Jul-09 19:00N 53°38' W 000°11'0 0.0
2018-Jul-09 18:30N 53°38' W 000°11'0 0.0
2018-Jul-09 18:00N 53°38' W 000°11'0 0.0
2018-Jul-09 17:30N 53°38' W 000°11'0 0.0
2018-Jul-09 17:00N 53°38' W 000°11'0 0.0
2018-Jul-09 16:27N 53°38' W 000°11'0 0.0
2018-Jul-09 15:54N 53°38' W 000°11'0 0.0
2018-Jul-09 15:15N 53°38' W 000°11'0 0.0
2018-Jul-09 15:00N 53°38' W 000°11'0 0.0
2018-Jul-09 14:24N 53°38' W 000°11'0 0.0
2018-Jul-09 13:54N 53°38' W 000°11'0 0.0
2018-Jul-09 13:30N 53°38' W 000°11'0 0.0
2018-Jul-09 12:45N 53°38' W 000°11'0 0.0
2018-Jul-09 12:30N 53°38' W 000°11'0 0.0
2018-Jul-09 12:00N 53°38' W 000°11'0 0.0
2018-Jul-09 11:30N 53°38' W 000°11'0 0.0
2018-Jul-09 11:00N 53°38' W 000°11'0 0.1
2018-Jul-09 10:30N 53°38' W 000°11'0 0.4
2018-Jul-09 10:00N 53°38' W 000°11'0 0.2
2018-Jul-09 09:30N 53°38' W 000°11'0 0.5
2018-Jul-09 09:00N 53°38' W 000°11'3 5.2
2018-Jul-09 08:30N 53°37' W 000°07'98 8.2
2018-Jul-08 20:31N 53°52' E 002°37'1 9.7
2018-Jul-08 20:24N 53°53' E 002°39'4 9.7
2018-Jul-08 19:57N 53°53' E 002°46'6 9.5
2018-Jul-08 19:17N 53°55' E 002°57'18 9.5
2018-Jul-08 17:24N 53°58' E 003°27'710.0
2018-Jul-08 16:42N 53°59' E 003°39'210.0
2018-Jul-08 16:30N 53°59' E 003°42'16010.8
2018-Jul-08 01:45N 54°00' E 008°14'2 9.3
2018-Jul-08 01:30N 54°00' E 008°17'611.9
2018-Jul-08 01:00N 53°59' E 008°27'612.6
2018-Jul-08 00:30N 53°57' E 008°38'713.4
2018-Jul-08 00:00N 53°52' E 008°44'713.3
2018-Jul-07 23:30N 53°51' E 008°55'714.1
2018-Jul-07 23:00N 53°53' E 009°07'1 2.9
2018-Jul-07 22:30N 53°54' E 009°09'0 0.1
2018-Jul-07 22:00N 53°54' E 009°09'2 3.6
2018-Jul-07 21:30N 53°55' E 009°11'4 8.4
2018-Jul-07 21:00N 53°58' E 009°16'4 8.0
2018-Jul-07 20:30N 54°02' E 009°18'4 8.4
2018-Jul-07 20:01N 54°06' E 009°20'4 7.5
2018-Jul-07 19:30N 54°09' E 009°23'4 8.2
2018-Jul-07 19:01N 54°11' E 009°29'3 6.5
2018-Jul-07 18:31N 54°12' E 009°34'3 6.7
2018-Jul-07 18:00N 54°15' E 009°37'4 7.3
2018-Jul-07 17:31N 54°18' E 009°42'4 8.0
2018-Jul-07 17:00N 54°21' E 009°46'4 7.6
2018-Jul-07 16:25N 54°21' E 009°53'  
Track history (hours):
 
Tides and Currents Weather Stations Pressure Air Temp Water Temp Dewpoint Dewpoint Depression Visibility Wind Speed Wind Dir Waves Ship Positions

Froland

Last reported at 2018-Jul-17 15:03 UTC. Time now 2018-Jul-18 22:25 UTC.
Position N 56°34' E 017°60'.

Length 107 m; draft 8.5 m.

Type: Cargo ship. MMSI: 305714000.

Date/timePositionNaut miles runAvg speedWind from/ knotsBaromVisibWave heightAir tempDewpointWater temp
2018-Jul-17 15:03N 56°34' E 017°60'010.8
2018-Jul-17 15:00N 56°34' E 017°59'610.8
2018-Jul-17 14:30N 56°30' E 017°51'510.8
2018-Jul-17 14:00N 56°27' E 017°44'510.9
2018-Jul-17 13:30N 56°24' E 017°36'611.1
2018-Jul-17 13:00N 56°20' E 017°28'611.3
2018-Jul-17 12:30N 56°17' E 017°20'611.2
2018-Jul-17 12:00N 56°13' E 017°12'611.2
2018-Jul-17 11:30N 56°10' E 017°04'611.2
2018-Jul-17 11:00N 56°07' E 016°56'611.2
2018-Jul-17 10:30N 56°03' E 016°48'611.1
2018-Jul-17 10:00N 56°00' E 016°40'611.2
2018-Jul-17 09:30N 55°57' E 016°31'611.2
2018-Jul-17 09:00N 55°55' E 016°22'611.1
2018-Jul-17 08:30N 55°52' E 016°14'611.2
2018-Jul-17 08:00N 55°49' E 016°05'611.1
2018-Jul-17 07:30N 55°47' E 015°56'611.2
2018-Jul-17 07:00N 55°44' E 015°48'611.4
2018-Jul-17 06:30N 55°41' E 015°39'611.5
2018-Jul-17 06:00N 55°39' E 015°30'611.5
2018-Jul-17 05:30N 55°36' E 015°21'611.3
2018-Jul-17 05:00N 55°33' E 015°12'611.1
2018-Jul-17 04:30N 55°30' E 015°03'511.3
2018-Jul-17 04:00N 55°28' E 014°55'611.3
2018-Jul-17 03:30N 55°25' E 014°46'611.1
2018-Jul-17 03:00N 55°22' E 014°38'611.2
2018-Jul-17 02:30N 55°17' E 014°32'611.2
2018-Jul-17 02:00N 55°13' E 014°26'611.4
2018-Jul-17 01:30N 55°08' E 014°20'611.8
2018-Jul-17 01:00N 55°04' E 014°14'611.5
2018-Jul-17 00:29N 55°00' E 014°05'4911.3
2018-Jul-16 20:09N 54°44' E 012°45'211.1
2018-Jul-16 20:00N 54°43' E 012°42'610.9
2018-Jul-16 19:29N 54°41' E 012°34'511.0
2018-Jul-16 19:00N 54°38' E 012°26'610.8
2018-Jul-16 18:28N 54°33' E 012°20'1010.8
2018-Jul-16 17:31N 54°25' E 012°10'110.9
2018-Jul-16 17:27N 54°24' E 012°09'611.0
2018-Jul-16 16:56N 54°24' E 011°59'811.2
2018-Jul-16 16:14N 54°25' E 011°46'311.4
2018-Jul-16 16:00N 54°26' E 011°42'611.6
2018-Jul-16 15:30N 54°28' E 011°33'611.4
2018-Jul-16 15:00N 54°31' E 011°24'611.2
2018-Jul-16 14:30N 54°33' E 011°15'611.3
2018-Jul-16 14:00N 54°36' E 011°07'611.4
2018-Jul-16 13:30N 54°39' E 010°59'510.5
2018-Jul-16 13:00N 54°43' E 010°52'510.9
2018-Jul-16 12:30N 54°48' E 010°52'510.3
2018-Jul-16 12:00N 54°53' E 010°53'510.1
2018-Jul-16 11:30N 54°58' E 010°58'510.4
2018-Jul-16 11:00N 55°03' E 011°02'510.8
2018-Jul-16 10:31N 55°08' E 011°03'610.5
2018-Jul-16 09:55N 55°14' E 011°06'511.5
2018-Jul-16 09:29N 55°18' E 011°02'610.9
2018-Jul-16 08:59N 55°24' E 011°00'43 9.8
2018-Jul-16 04:35N 56°07' E 011°09'311.1
2018-Jul-16 04:19N 56°09' E 011°13'410.9
2018-Jul-16 03:57N 56°12' E 011°18'511.1
2018-Jul-16 03:29N 56°16' E 011°22'511.0
2018-Jul-16 03:00N 56°21' E 011°27'510.9
2018-Jul-16 02:30N 56°26' E 011°32'711.3
2018-Jul-16 01:53N 56°32' E 011°38'411.4
2018-Jul-16 01:30N 56°35' E 011°42'611.3
2018-Jul-16 01:00N 56°40' E 011°47'611.2
2018-Jul-16 00:30N 56°46' E 011°51'611.4
2018-Jul-16 00:00N 56°51' E 011°48'611.3
2018-Jul-15 23:30N 56°56' E 011°45'611.0
2018-Jul-15 23:00N 57°01' E 011°42'510.8
2018-Jul-15 22:30N 57°07' E 011°38'611.4
2018-Jul-15 22:00N 57°12' E 011°35'611.7
2018-Jul-15 21:30N 57°17' E 011°31'611.7
2018-Jul-15 21:00N 57°23' E 011°27'611.1
2018-Jul-15 20:30N 57°28' E 011°23'611.4
2018-Jul-15 20:00N 57°32' E 011°15'611.5
2018-Jul-15 19:30N 57°36' E 011°07'611.9
2018-Jul-15 19:00N 57°40' E 010°59'611.7
2018-Jul-15 18:30N 57°43' E 010°51'3012.1
2018-Jul-15 16:00N 57°46' E 009°54'7311.6
2018-Jul-15 09:45N 57°42' E 007°38'311.2
2018-Jul-15 09:30N 57°42' E 007°33'611.2
2018-Jul-15 09:00N 57°42' E 007°23'611.2
2018-Jul-15 08:30N 57°42' E 007°12'6610.7
2018-Jul-15 02:18N 58°15' E 005°23'811.2
2018-Jul-15 01:37N 58°20' E 005°13'211.9
2018-Jul-15 01:28N 58°22' E 005°13'611.9
2018-Jul-15 00:57N 58°28' E 005°15'511.6
2018-Jul-15 00:30N 58°33' E 005°16'611.6
2018-Jul-15 00:00N 58°39' E 005°18'612.0
2018-Jul-14 23:30N 58°45' E 005°21'612.2
2018-Jul-14 23:00N 58°50' E 005°27'510.7
2018-Jul-14 22:30N 58°55' E 005°32'611.4
2018-Jul-14 22:00N 59°00' E 005°33'3 6.3
2018-Jul-14 21:30N 59°02' E 005°39'510.7
2018-Jul-14 21:00N 59°02' E 005°49'4 8.9
2018-Jul-14 20:30N 59°05' E 005°54'0 0.2
2018-Jul-14 19:58N 59°05' E 005°54'0 0.0
2018-Jul-14 19:28N 59°05' E 005°54'0 0.0
2018-Jul-14 18:58N 59°05' E 005°54'0 0.0
2018-Jul-14 18:28N 59°05' E 005°54'0 0.0
2018-Jul-14 17:58N 59°05' E 005°54'0 0.0
2018-Jul-14 17:28N 59°05' E 005°54'0 0.0
2018-Jul-14 16:58N 59°05' E 005°54'0 0.0
2018-Jul-14 16:25N 59°05' E 005°54'0 0.0
2018-Jul-14 15:58N 59°05' E 005°54'0 0.0
2018-Jul-14 15:28N 59°05' E 005°54'0 0.0
2018-Jul-14 14:58N 59°05' E 005°54'0 0.0
2018-Jul-14 14:28N 59°05' E 005°54'0 0.0
2018-Jul-14 13:28N 59°05' E 005°54'0 0.0
2018-Jul-14 12:58N 59°05' E 005°54'0 0.0
2018-Jul-14 12:28N 59°05' E 005°54'0 0.0
2018-Jul-14 11:58N 59°05' E 005°54'0 0.0
2018-Jul-14 11:28N 59°05' E 005°54'0 0.0
2018-Jul-14 10:58N 59°05' E 005°54'0 0.0
2018-Jul-14 10:28N 59°05' E 005°54'0 0.0
2018-Jul-14 09:58N 59°05' E 005°54'0 0.0
2018-Jul-14 09:28N 59°05' E 005°54'0 0.0
2018-Jul-14 08:58N 59°05' E 005°54'0 0.0
2018-Jul-14 08:30N 59°05' E 005°54'1 1.1
2018-Jul-14 08:00N 59°05' E 005°53'510.2
2018-Jul-14 07:30N 59°02' E 005°45'611.5
2018-Jul-14 07:00N 59°03' E 005°34'611.4
2018-Jul-14 06:30N 58°57' E 005°33'611.9
2018-Jul-14 06:00N 58°51' E 005°31'510.4
2018-Jul-14 05:30N 58°49' E 005°21'611.4
2018-Jul-14 05:00N 58°45' E 005°15'611.8
2018-Jul-14 04:30N 58°40' E 005°09'611.8
2018-Jul-14 03:59N 58°34' E 005°04'611.9
2018-Jul-14 03:27N 58°29' E 004°58'33712.0
2018-Jul-12 23:16N 53°33' E 000°10'413.4
2018-Jul-12 23:01N 53°34' E 000°05'714.1
2018-Jul-12 22:30N 53°37' W 000°06'3 6.2
2018-Jul-12 22:00N 53°38' W 000°11'0 0.0
2018-Jul-12 21:30N 53°38' W 000°11'0 0.4
2018-Jul-12 21:00N 53°38' W 000°11'0 0.0
2018-Jul-12 20:24N 53°38' W 000°11'0 0.0
2018-Jul-12 20:00N 53°38' W 000°11'0 0.0
2018-Jul-12 19:21N 53°38' W 000°11'0 0.0
2018-Jul-12 18:39N 53°38' W 000°11'0 0.0
2018-Jul-12 16:12N 53°38' W 000°11'0 0.0
2018-Jul-12 15:51N 53°38' W 000°11'0 0.0
2018-Jul-12 15:27N 53°38' W 000°11'0 0.0
2018-Jul-12 13:54N 53°38' W 000°11'0 0.0
2018-Jul-12 13:30N 53°38' W 000°11'0 0.0
2018-Jul-12 13:00N 53°38' W 000°11'0 0.0
2018-Jul-12 12:30N 53°38' W 000°11'0 0.0
2018-Jul-12 12:00N 53°38' W 000°11'0 0.0
2018-Jul-12 09:30N 53°38' W 000°11'0 0.0
2018-Jul-12 08:12N 53°38' W 000°11'0 0.0
2018-Jul-12 08:00N 53°38' W 000°11'0 0.0
2018-Jul-12 07:24N 53°38' W 000°11'0 0.0
2018-Jul-12 07:00N 53°38' W 000°11'0 0.0
2018-Jul-12 06:30N 53°38' W 000°11'0 0.0
2018-Jul-12 05:42N 53°38' W 000°11'0 0.0
2018-Jul-12 05:30N 53°38' W 000°11'0 0.0
2018-Jul-12 05:00N 53°38' W 000°11'0 0.0
2018-Jul-12 04:30N 53°38' W 000°11'0 0.0
2018-Jul-12 04:00N 53°38' W 000°11'0 0.0
2018-Jul-12 03:18N 53°38' W 000°11'0 0.0
2018-Jul-12 03:00N 53°38' W 000°11'0 0.0
2018-Jul-12 02:30N 53°38' W 000°11'0 0.0
2018-Jul-12 02:00N 53°38' W 000°11'0 0.0
2018-Jul-12 01:24N 53°38' W 000°11'0 0.0
2018-Jul-12 01:00N 53°38' W 000°11'0 0.0
2018-Jul-12 00:27N 53°38' W 000°11'0 0.0
2018-Jul-11 23:09N 53°38' W 000°11'0 0.0
2018-Jul-11 23:00N 53°38' W 000°11'0 0.0
2018-Jul-11 22:30N 53°38' W 000°11'0 0.0
2018-Jul-11 21:54N 53°38' W 000°11'0 0.0
2018-Jul-11 21:24N 53°38' W 000°11'0 0.0
2018-Jul-11 20:54N 53°38' W 000°11'0 0.0
2018-Jul-11 15:42N 53°38' W 000°11'0 0.0
2018-Jul-11 15:18N 53°38' W 000°11'0 0.0
2018-Jul-11 13:54N 53°38' W 000°11'0 0.0
2018-Jul-11 13:24N 53°38' W 000°11'0 0.0
2018-Jul-11 11:51N 53°38' W 000°11'0 0.0
2018-Jul-11 11:21N 53°38' W 000°11'0 0.0
2018-Jul-11 10:45N 53°38' W 000°11'0 0.0
2018-Jul-11 10:30N 53°38' W 000°11'0 0.0
2018-Jul-11 09:45N 53°38' W 000°11'0 0.0
2018-Jul-11 09:30N 53°38' W 000°11'0 0.0
2018-Jul-11 08:57N 53°38' W 000°11'0 0.0
2018-Jul-11 08:30N 53°38' W 000°11'0 0.0
2018-Jul-11 07:57N 53°38' W 000°11'0 0.0
2018-Jul-11 07:27N 53°38' W 000°11'0 0.0
2018-Jul-11 06:54N 53°38' W 000°11'0 0.0
2018-Jul-11 06:00N 53°38' W 000°11'0 0.0
2018-Jul-11 05:30N 53°38' W 000°11'0 0.0
2018-Jul-11 04:57N 53°38' W 000°11'0 0.0
2018-Jul-11 04:27N 53°38' W 000°11'0 0.0
2018-Jul-11 03:51N 53°38' W 000°11'0 0.0
2018-Jul-11 03:15N 53°38' W 000°11'0 0.0
2018-Jul-11 02:57N 53°38' W 000°11'0 0.0
2018-Jul-11 02:21N 53°38' W 000°11'0 0.0
2018-Jul-11 01:45N 53°38' W 000°11'0 0.0
2018-Jul-11 01:27N 53°38' W 000°11'0 0.0
2018-Jul-11 00:57N 53°38' W 000°11'0 0.0
2018-Jul-11 00:27N 53°38' W 000°11'0 0.0
2018-Jul-10 23:45N 53°38' W 000°11'0 0.0
2018-Jul-10 23:27N 53°38' W 000°11'0 0.0
2018-Jul-10 22:57N 53°38' W 000°11'0 0.0
2018-Jul-10 22:30N 53°38' W 000°11'0 0.0
2018-Jul-10 21:51N 53°38' W 000°11'0 0.0
2018-Jul-10 21:27N 53°38' W 000°11'0 0.0
2018-Jul-10 20:51N 53°38' W 000°11'0 0.0
2018-Jul-10 20:27N 53°38' W 000°11'0 0.0
2018-Jul-10 19:57N 53°38' W 000°11'0 0.0
2018-Jul-10 19:24N 53°38' W 000°11'0 0.0
2018-Jul-10 18:39N 53°38' W 000°11'0 0.0
2018-Jul-10 18:15N 53°38' W 000°11'0 0.0
2018-Jul-10 17:57N 53°38' W 000°11'0 0.0
2018-Jul-10 17:27N 53°38' W 000°11'0 0.0
2018-Jul-10 16:57N 53°38' W 000°11'0 0.0
2018-Jul-10 13:09N 53°38' W 000°11'0 0.0
2018-Jul-10 12:57N 53°38' W 000°11'0 0.0
2018-Jul-10 12:18N 53°38' W 000°11'0 0.0
2018-Jul-10 11:54N 53°38' W 000°11'0 0.0
2018-Jul-10 11:27N 53°38' W 000°11'0 0.0
2018-Jul-10 10:45N 53°38' W 000°11'0 0.0
2018-Jul-10 10:30N 53°38' W 000°11'0 0.0
2018-Jul-10 09:57N 53°38' W 000°11'0 0.0
2018-Jul-10 09:24N 53°38' W 000°11'0 0.0
2018-Jul-10 09:00N 53°38' W 000°11'0 0.0
2018-Jul-10 08:30N 53°38' W 000°11'0 0.0
2018-Jul-10 08:00N 53°38' W 000°11'0 0.0
2018-Jul-10 07:15N 53°38' W 000°11'0 0.0
2018-Jul-10 06:51N 53°38' W 000°11'0 0.0
2018-Jul-10 06:21N 53°38' W 000°11'0 0.0
2018-Jul-10 05:51N 53°38' W 000°11'0 0.0
2018-Jul-10 05:27N 53°38' W 000°11'0 0.0
2018-Jul-10 05:00N 53°38' W 000°11'0 0.0
2018-Jul-10 04:30N 53°38' W 000°11'0 0.0
2018-Jul-10 04:00N 53°38' W 000°11'0 0.0
2018-Jul-10 03:24N 53°38' W 000°11'0 0.0
2018-Jul-10 03:00N 53°38' W 000°11'0 0.0
2018-Jul-10 02:30N 53°38' W 000°11'0 0.0
2018-Jul-10 02:00N 53°38' W 000°11'0 0.0
2018-Jul-10 01:30N 53°38' W 000°11'0 0.0
2018-Jul-10 00:57N 53°38' W 000°11'0 0.0
2018-Jul-10 00:30N 53°38' W 000°11'0 0.0
2018-Jul-10 00:00N 53°38' W 000°11'0 0.0
2018-Jul-09 23:30N 53°38' W 000°11'0 0.0
2018-Jul-09 23:00N 53°38' W 000°11'0 0.0
2018-Jul-09 22:30N 53°38' W 000°11'0 0.0
2018-Jul-09 22:00N 53°38' W 000°11'0 0.0
2018-Jul-09 21:30N 53°38' W 000°11'0 0.0
2018-Jul-09 21:00N 53°38' W 000°11'0 0.0
2018-Jul-09 20:30N 53°38' W 000°11'0 0.0
2018-Jul-09 20:00N 53°38' W 000°11'0 0.0
2018-Jul-09 19:24N 53°38' W 000°11'0 0.0
2018-Jul-09 19:00N 53°38' W 000°11'0 0.0
2018-Jul-09 18:30N 53°38' W 000°11'0 0.0
2018-Jul-09 18:00N 53°38' W 000°11'0 0.0
2018-Jul-09 17:30N 53°38' W 000°11'0 0.0
2018-Jul-09 17:00N 53°38' W 000°11'0 0.0
2018-Jul-09 16:27N 53°38' W 000°11'0 0.0
2018-Jul-09 15:54N 53°38' W 000°11'0 0.0
2018-Jul-09 15:15N 53°38' W 000°11'0 0.0
2018-Jul-09 15:00N 53°38' W 000°11'0 0.0
2018-Jul-09 14:24N 53°38' W 000°11'0 0.0
2018-Jul-09 13:54N 53°38' W 000°11'0 0.0
2018-Jul-09 13:30N 53°38' W 000°11'0 0.0
2018-Jul-09 12:45N 53°38' W 000°11'0 0.0
2018-Jul-09 12:30N 53°38' W 000°11'0 0.0
2018-Jul-09 12:00N 53°38' W 000°11'0 0.0
2018-Jul-09 11:30N 53°38' W 000°11'0 0.0
2018-Jul-09 11:00N 53°38' W 000°11'0 0.1
2018-Jul-09 10:30N 53°38' W 000°11'0 0.4
2018-Jul-09 10:00N 53°38' W 000°11'0 0.2
2018-Jul-09 09:30N 53°38' W 000°11'0 0.5
2018-Jul-09 09:00N 53°38' W 000°11'3 5.2
2018-Jul-09 08:30N 53°37' W 000°07'98 8.2
2018-Jul-08 20:31N 53°52' E 002°37'1 9.7
2018-Jul-08 20:24N 53°53' E 002°39'4 9.7
2018-Jul-08 19:57N 53°53' E 002°46'6 9.5
2018-Jul-08 19:17N 53°55' E 002°57'18 9.5
2018-Jul-08 17:24N 53°58' E 003°27'710.0
2018-Jul-08 16:42N 53°59' E 003°39'210.0
2018-Jul-08 16:30N 53°59' E 003°42'16010.8
2018-Jul-08 01:45N 54°00' E 008°14'2 9.3
2018-Jul-08 01:30N 54°00' E 008°17'611.9
2018-Jul-08 01:00N 53°59' E 008°27'612.6
2018-Jul-08 00:30N 53°57' E 008°38'713.4
2018-Jul-08 00:00N 53°52' E 008°44'713.3
2018-Jul-07 23:30N 53°51' E 008°55'714.1
2018-Jul-07 23:00N 53°53' E 009°07'1 2.9
2018-Jul-07 22:30N 53°54' E 009°09'0 0.1
2018-Jul-07 22:00N 53°54' E 009°09'2 3.6
2018-Jul-07 21:30N 53°55' E 009°11'4 8.4
2018-Jul-07 21:00N 53°58' E 009°16'4 8.0
2018-Jul-07 20:30N 54°02' E 009°18'4 8.4
2018-Jul-07 20:01N 54°06' E 009°20'4 7.5
2018-Jul-07 19:30N 54°09' E 009°23'4 8.2
2018-Jul-07 19:01N 54°11' E 009°29'3 6.5
2018-Jul-07 18:31N 54°12' E 009°34'3 6.7
2018-Jul-07 18:00N 54°15' E 009°37'4 7.3
2018-Jul-07 17:31N 54°18' E 009°42'4 8.0
2018-Jul-07 17:00N 54°21' E 009°46'4 7.6
2018-Jul-07 16:25N 54°21' E 009°53'  

Dump ship's entire track history